Time;durP1;ratioP1;P1;durP2;ratioP2;P2;SDS_P1;SDS_P2;PMS_P1;PMS_P2;Temp;Humidity;BMP_temperature;BMP_pressure;BME280_temperature;BME280_humidity;BME280_pressure;Samples;Min_cycle;Max_cycle;Signal;HPM_P1;HPM_P2
2024/01/08 00:00:22;;;;;;;;;;;-3.20;99.90;;;;;;5035811;28;19956;-76
2024/01/08 00:02:48;;;;;;;;;;;-3.30;99.90;;;;;;5033914;28;20012;-76
2024/01/08 00:05:13;;;;;;;;;;;-3.30;99.90;;;;;;5061411;28;19979;-76
2024/01/08 00:07:39;;;;;;;;;;;-3.40;99.90;;;;;;5033474;28;19913;-76
2024/01/08 00:10:04;;;;;;;;;;;-3.30;99.90;;;;;;5032891;28;19931;-76
2024/01/08 00:12:30;;;;;;;;;;;-3.30;99.90;;;;;;5024447;28;19909;-76
2024/01/08 00:14:55;;;;;;;;;;;-3.30;99.90;;;;;;5030189;28;19909;-75
2024/01/08 00:17:21;;;;;;;;;;;-3.30;99.90;;;;;;5036954;28;20288;-75
2024/01/08 00:19:46;;;;;;;;;;;-3.30;99.90;;;;;;5032414;28;19963;-75
2024/01/08 00:22:12;;;;;;;;;;;-3.30;99.90;;;;;;5038513;28;19913;-75
2024/01/08 00:24:37;;;;;;;;;;;-3.30;99.90;;;;;;5028474;28;20423;-75
2024/01/08 00:27:03;;;;;;;;;;;-3.30;99.90;;;;;;5047428;28;20015;-75
2024/01/08 00:29:28;;;;;;;;;;;-3.30;99.90;;;;;;5047458;28;19909;-74
2024/01/08 00:31:54;;;;;;;;;;;-3.30;99.90;;;;;;5038207;28;19959;-75
2024/01/08 00:34:20;;;;;;;;;;;-3.30;99.90;;;;;;5034206;28;19932;-77
2024/01/08 00:36:46;;;;;;;;;;;-3.30;99.90;;;;;;5041162;28;20373;-77
2024/01/08 00:39:11;;;;;;;;;;;-3.30;99.90;;;;;;5039167;28;19915;-74
2024/01/08 00:41:37;;;;;;;;;;;-3.30;99.90;;;;;;5036200;28;19909;-74
2024/01/08 00:44:03;;;;;;;;;;;-3.30;99.90;;;;;;5066127;28;19909;-74
2024/01/08 00:46:28;;;;;;;;;;;-3.30;99.90;;;;;;5031759;28;19917;-75
2024/01/08 00:48:54;;;;;;;;;;;-3.30;99.90;;;;;;5036796;28;19913;-75
2024/01/08 00:51:19;;;;;;;;;;;-3.30;99.90;;;;;;5025711;28;20351;-75
2024/01/08 00:53:45;;;;;;;;;;;-3.30;99.90;;;;;;5041381;28;19923;-75
2024/01/08 00:56:12;;;;;;;;;;;-3.30;99.90;;;;;;5038352;28;19913;-75
2024/01/08 00:58:41;;;;;;;;;;;-3.40;99.90;;;;;;5028257;28;19916;-75
2024/01/08 01:01:07;;;;;;;;;;;-3.30;99.90;;;;;;5028694;28;19909;-75
2024/01/08 01:03:33;;;;;;;;;;;-3.30;99.90;;;;;;5037301;28;19913;-75
2024/01/08 01:05:58;;;;;;;;;;;-3.40;99.90;;;;;;5031474;28;19913;-75
2024/01/08 01:08:24;;;;;;;;;;;-3.30;99.90;;;;;;5035210;28;19927;-75
2024/01/08 01:10:49;;;;;;;;;;;-3.30;99.90;;;;;;5044001;28;20392;-75
2024/01/08 01:13:15;;;;;;;;;;;-3.30;99.90;;;;;;5037784;28;19945;-75
2024/01/08 01:15:41;;;;;;;;;;;-3.30;99.90;;;;;;5023563;28;19940;-75
2024/01/08 01:18:06;;;;;;;;;;;-3.30;99.90;;;;;;5040435;28;20395;-75
2024/01/08 01:20:32;;;;;;;;;;;-3.30;99.90;;;;;;5041334;28;19909;-75
2024/01/08 01:22:57;;;;;;;;;;;-3.30;99.90;;;;;;5035165;28;20358;-75
2024/01/08 01:25:23;;;;;;;;;;;-3.30;99.90;;;;;;5034077;28;19913;-75
2024/01/08 01:27:49;;;;;;;;;;;-3.30;99.90;;;;;;5037979;28;20018;-74
2024/01/08 01:30:15;;;;;;;;;;;-3.30;99.90;;;;;;5031342;28;20106;-75
2024/01/08 01:32:40;;;;;;;;;;;-3.30;99.90;;;;;;5037150;28;20418;-75
2024/01/08 01:35:06;;;;;;;;;;;-3.30;99.90;;;;;;5037942;28;19909;-75
2024/01/08 01:37:31;;;;;;;;;;;-3.30;99.90;;;;;;5040213;28;19916;-80
2024/01/08 01:39:57;;;;;;;;;;;-3.30;99.90;;;;;;5037156;28;19916;-77
2024/01/08 01:42:22;;;;;;;;;;;-3.30;99.90;;;;;;5034506;28;19912;-77
2024/01/08 01:44:48;;;;;;;;;;;-3.30;99.90;;;;;;5030794;28;19916;-77
2024/01/08 01:47:14;;;;;;;;;;;-3.30;99.90;;;;;;5031097;28;19924;-78
2024/01/08 01:49:40;;;;;;;;;;;-3.30;99.90;;;;;;5034992;28;19962;-75
2024/01/08 01:52:06;;;;;;;;;;;-3.30;99.90;;;;;;5041406;28;19909;-75
2024/01/08 01:54:31;;;;;;;;;;;-3.30;99.90;;;;;;5037864;28;19909;-75
2024/01/08 01:56:59;;;;;;;;;;;-3.30;99.90;;;;;;5042682;28;19917;-75
2024/01/08 01:59:26;;;;;;;;;;;-3.30;99.90;;;;;;5033088;28;19964;-75
2024/01/08 02:01:52;;;;;;;;;;;-3.30;99.90;;;;;;5036995;28;19915;-75
2024/01/08 02:04:17;;;;;;;;;;;-3.30;99.90;;;;;;5029901;28;19909;-74
2024/01/08 02:06:43;;;;;;;;;;;-3.30;99.90;;;;;;5029950;28;19966;-74
2024/01/08 02:09:09;;;;;;;;;;;-3.30;99.90;;;;;;5029151;28;19979;-75
2024/01/08 02:11:35;;;;;;;;;;;-3.30;99.90;;;;;;5035868;28;19952;-75
2024/01/08 02:14:00;;;;;;;;;;;-3.30;99.90;;;;;;5037806;28;19958;-75
2024/01/08 02:16:26;;;;;;;;;;;-3.30;99.90;;;;;;5034684;28;19909;-75
2024/01/08 02:18:51;;;;;;;;;;;-3.30;99.90;;;;;;5040400;28;19916;-75
2024/01/08 02:21:17;;;;;;;;;;;-3.30;99.90;;;;;;5031917;28;20405;-75
2024/01/08 02:23:42;;;;;;;;;;;-3.30;99.90;;;;;;5033798;28;19909;-74
2024/01/08 02:26:09;;;;;;;;;;;-3.30;99.90;;;;;;5032348;28;19921;-74
2024/01/08 02:28:35;;;;;;;;;;;-3.30;99.90;;;;;;5036016;28;20373;-74
2024/01/08 02:31:00;;;;;;;;;;;-3.30;99.90;;;;;;5028758;28;19916;-75
2024/01/08 02:33:26;;;;;;;;;;;-3.30;99.90;;;;;;5027892;28;19909;-75
2024/01/08 02:35:51;;;;;;;;;;;-3.30;99.90;;;;;;5038258;28;19992;-74
2024/01/08 02:38:17;;;;;;;;;;;-3.30;99.90;;;;;;5034995;28;20382;-75
2024/01/08 02:40:42;;;;;;;;;;;-3.30;99.90;;;;;;5035229;28;19995;-75
2024/01/08 02:43:08;;;;;;;;;;;-3.30;99.90;;;;;;5030516;28;19920;-74
2024/01/08 02:45:33;;;;;;;;;;;-3.30;99.90;;;;;;5031535;28;19913;-74
2024/01/08 02:47:59;;;;;;;;;;;-3.30;99.90;;;;;;5030467;28;20424;-74
2024/01/08 02:50:24;;;;;;;;;;;-3.30;99.90;;;;;;5037212;28;19917;-74
2024/01/08 02:52:49;;;;;;;;;;;-3.30;99.90;;;;;;5033086;28;19963;-74
2024/01/08 02:55:15;;;;;;;;;;;-3.30;99.90;;;;;;5029042;28;19909;-74
2024/01/08 02:57:40;;;;;;;;;;;-3.30;99.90;;;;;;5029521;28;19928;-75
2024/01/08 03:00:06;;;;;;;;;;;-3.30;99.90;;;;;;5028870;28;20461;-75
2024/01/08 03:02:32;;;;;;;;;;;-3.30;99.90;;;;;;5028437;28;19920;-75
2024/01/08 03:04:58;;;;;;;;;;;-3.30;99.90;;;;;;5029051;28;20350;-74
2024/01/08 03:07:23;;;;;;;;;;;-3.30;99.90;;;;;;5029975;28;19917;-74
2024/01/08 03:09:49;;;;;;;;;;;-3.30;99.90;;;;;;5049637;28;19913;-73
2024/01/08 03:12:15;;;;;;;;;;;-3.30;99.90;;;;;;5041904;28;20380;-74
2024/01/08 03:14:41;;;;;;;;;;;-3.30;99.90;;;;;;5032733;28;20024;-75
2024/01/08 03:17:06;;;;;;;;;;;-3.30;99.90;;;;;;5037065;28;19910;-74
2024/01/08 03:19:32;;;;;;;;;;;-3.30;99.90;;;;;;5031892;28;19916;-73
2024/01/08 03:21:59;;;;;;;;;;;-3.30;99.90;;;;;;5039890;28;19908;-74
2024/01/08 03:24:24;;;;;;;;;;;-3.30;99.90;;;;;;5034195;28;19909;-73
2024/01/08 03:26:50;;;;;;;;;;;-3.30;99.90;;;;;;5031784;28;20004;-75
2024/01/08 03:29:16;;;;;;;;;;;-3.30;99.90;;;;;;5029387;28;19939;-75
2024/01/08 03:31:41;;;;;;;;;;;-3.30;99.90;;;;;;5029708;28;20331;-75
2024/01/08 03:34:07;;;;;;;;;;;-3.30;99.90;;;;;;5036731;28;19910;-74
2024/01/08 03:36:33;;;;;;;;;;;-3.30;99.90;;;;;;5034089;28;19988;-74
2024/01/08 03:38:59;;;;;;;;;;;-3.30;99.90;;;;;;5030053;28;20538;-75
2024/01/08 03:41:25;;;;;;;;;;;-3.30;99.90;;;;;;5036150;28;19913;-74
2024/01/08 03:43:50;;;;;;;;;;;-3.30;99.90;;;;;;5030772;28;19910;-75
2024/01/08 03:46:16;;;;;;;;;;;-3.20;99.90;;;;;;5035135;28;19951;-74
2024/01/08 03:48:41;;;;;;;;;;;-3.30;99.90;;;;;;5029901;28;19913;-74
2024/01/08 03:51:07;;;;;;;;;;;-3.30;99.90;;;;;;5024648;28;19917;-74
2024/01/08 03:53:32;;;;;;;;;;;-3.20;99.90;;;;;;5033144;28;19996;-75
2024/01/08 03:55:58;;;;;;;;;;;-3.20;99.90;;;;;;5037414;28;20421;-74
2024/01/08 03:58:25;;;;;;;;;;;-3.20;99.90;;;;;;5038771;28;19936;-74
2024/01/08 04:00:51;;;;;;;;;;;-3.20;99.90;;;;;;5039459;28;19948;-75
2024/01/08 04:03:17;;;;;;;;;;;-3.20;99.90;;;;;;5037888;28;19963;-75
2024/01/08 04:05:42;;;;;;;;;;;-3.20;99.90;;;;;;5040833;28;19909;-75
2024/01/08 04:08:07;;;;;;;;;;;-3.20;99.90;;;;;;5045258;28;19917;-74
2024/01/08 04:10:33;;;;;;;;;;;-3.20;99.90;;;;;;5042984;28;19964;-75
2024/01/08 04:12:58;;;;;;;;;;;-3.20;99.90;;;;;;5032946;28;19916;-75
2024/01/08 04:15:24;;;;;;;;;;;-3.20;99.90;;;;;;5036240;28;20276;-74
2024/01/08 04:17:50;;;;;;;;;;;-3.30;99.90;;;;;;5031956;28;19913;-74
2024/01/08 04:20:16;;;;;;;;;;;-3.30;99.90;;;;;;5038236;28;20293;-74
2024/01/08 04:22:44;;;;;;;;;;;-3.30;99.90;;;;;;5040991;28;19909;-74
2024/01/08 04:25:09;;;;;;;;;;;-3.20;99.90;;;;;;5039533;28;19909;-74
2024/01/08 04:27:35;;;;;;;;;;;-3.20;99.90;;;;;;5035287;28;19923;-75
2024/01/08 04:30:00;;;;;;;;;;;-3.20;99.90;;;;;;5040812;28;20277;-74
2024/01/08 04:32:26;;;;;;;;;;;-3.30;99.90;;;;;;5035207;28;19909;-74
2024/01/08 04:34:51;;;;;;;;;;;-3.30;99.90;;;;;;5039299;28;20453;-74
2024/01/08 04:37:17;;;;;;;;;;;-3.30;99.90;;;;;;5037065;28;19963;-74
2024/01/08 04:39:42;;;;;;;;;;;-3.30;99.90;;;;;;5035689;28;19923;-74
2024/01/08 04:42:08;;;;;;;;;;;-3.20;99.90;;;;;;5032370;28;19916;-75
2024/01/08 04:44:33;;;;;;;;;;;-3.20;99.90;;;;;;5041772;28;20331;-75
2024/01/08 04:46:59;;;;;;;;;;;-3.30;99.90;;;;;;5046711;28;19916;-74
2024/01/08 04:49:24;;;;;;;;;;;-3.30;99.90;;;;;;5033130;28;19909;-74
2024/01/08 04:51:50;;;;;;;;;;;-3.30;99.90;;;;;;5032973;28;19924;-74
2024/01/08 04:54:16;;;;;;;;;;;-3.30;99.90;;;;;;5041496;28;19946;-74
2024/01/08 04:56:41;;;;;;;;;;;-3.30;99.90;;;;;;5033183;28;20590;-75
2024/01/08 04:59:07;;;;;;;;;;;-3.30;99.90;;;;;;5037368;28;19922;-74
2024/01/08 05:01:35;;;;;;;;;;;-3.30;99.90;;;;;;5031938;28;19915;-74
2024/01/08 05:04:01;;;;;;;;;;;-3.30;99.90;;;;;;5032864;28;19979;-75
2024/01/08 05:06:26;;;;;;;;;;;-3.30;99.90;;;;;;5034184;28;20366;-74
2024/01/08 05:08:52;;;;;;;;;;;-3.30;99.90;;;;;;5038943;28;19919;-75
2024/01/08 05:11:17;;;;;;;;;;;-3.30;99.90;;;;;;5031888;28;19947;-75
2024/01/08 05:13:43;;;;;;;;;;;-3.30;99.90;;;;;;5035851;28;19928;-74
2024/01/08 05:16:08;;;;;;;;;;;-3.30;99.90;;;;;;5033269;28;20297;-74
2024/01/08 05:18:34;;;;;;;;;;;-3.30;99.90;;;;;;5038012;28;19909;-74
2024/01/08 05:20:59;;;;;;;;;;;-3.30;99.90;;;;;;5034987;28;20289;-74
2024/01/08 05:23:25;;;;;;;;;;;-3.30;99.90;;;;;;5040494;28;19913;-75
2024/01/08 05:25:50;;;;;;;;;;;-3.30;99.90;;;;;;5036073;28;19921;-74
2024/01/08 05:28:16;;;;;;;;;;;-3.40;99.90;;;;;;5038428;28;19973;-74
2024/01/08 05:30:41;;;;;;;;;;;-3.40;99.90;;;;;;5035377;28;19920;-74
2024/01/08 05:33:07;;;;;;;;;;;-3.40;99.90;;;;;;5036206;28;19966;-75
2024/01/08 05:35:34;;;;;;;;;;;-3.40;99.90;;;;;;5032986;28;19909;-75
2024/01/08 05:38:00;;;;;;;;;;;-3.30;99.90;;;;;;5036860;28;19920;-75
2024/01/08 05:40:25;;;;;;;;;;;-3.40;99.90;;;;;;5035008;28;19908;-74
2024/01/08 05:42:51;;;;;;;;;;;-3.40;99.90;;;;;;5032575;28;19908;-74
2024/01/08 05:45:16;;;;;;;;;;;-3.40;99.90;;;;;;5026631;28;20008;-75
2024/01/08 05:47:43;;;;;;;;;;;-3.40;99.90;;;;;;5038763;28;19980;-74
2024/01/08 05:50:09;;;;;;;;;;;-3.40;99.90;;;;;;5042875;28;19912;-74
2024/01/08 05:52:34;;;;;;;;;;;-3.40;99.90;;;;;;5033568;28;19909;-75
2024/01/08 05:55:00;;;;;;;;;;;-3.40;99.90;;;;;;5033807;28;19945;-74
2024/01/08 05:57:25;;;;;;;;;;;-3.40;99.90;;;;;;5041806;28;19931;-74
2024/01/08 05:59:51;;;;;;;;;;;-3.40;99.90;;;;;;5040475;28;19931;-75
2024/01/08 06:02:16;;;;;;;;;;;-3.40;99.90;;;;;;5030999;28;20336;-75
2024/01/08 06:04:41;;;;;;;;;;;-3.40;99.90;;;;;;5030293;28;20027;-75
2024/01/08 06:07:07;;;;;;;;;;;-3.40;99.90;;;;;;5037930;28;19996;-75
2024/01/08 06:09:32;;;;;;;;;;;-3.50;99.90;;;;;;5033994;28;20286;-75
2024/01/08 06:12:01;;;;;;;;;;;-3.50;99.90;;;;;;5035335;28;19909;-74
2024/01/08 06:14:26;;;;;;;;;;;-3.50;99.90;;;;;;5033706;28;20289;-75
2024/01/08 06:16:52;;;;;;;;;;;-3.40;99.90;;;;;;5035895;28;19909;-75
2024/01/08 06:19:18;;;;;;;;;;;-3.40;99.90;;;;;;5036640;28;19995;-75
2024/01/08 06:21:43;;;;;;;;;;;-3.40;99.90;;;;;;5043511;28;19970;-75
2024/01/08 06:24:09;;;;;;;;;;;-3.40;99.90;;;;;;5037650;28;19909;-73
2024/01/08 06:26:35;;;;;;;;;;;-3.40;99.90;;;;;;5032951;28;19961;-75
2024/01/08 06:29:00;;;;;;;;;;;-3.50;99.90;;;;;;5029664;28;19913;-75
2024/01/08 06:31:26;;;;;;;;;;;-3.40;99.90;;;;;;5043131;28;19908;-74
2024/01/08 06:33:52;;;;;;;;;;;-3.40;99.90;;;;;;5031310;28;19916;-73
2024/01/08 06:36:18;;;;;;;;;;;-3.40;99.90;;;;;;5026641;28;19916;-73
2024/01/08 06:38:43;;;;;;;;;;;-3.50;99.90;;;;;;5031929;28;19909;-75
2024/01/08 06:41:09;;;;;;;;;;;-3.50;99.90;;;;;;5034191;28;20011;-75
2024/01/08 06:43:35;;;;;;;;;;;-3.50;99.90;;;;;;5033062;28;19909;-75
2024/01/08 06:46:00;;;;;;;;;;;-3.60;99.90;;;;;;5036196;28;19928;-74
2024/01/08 06:48:26;;;;;;;;;;;-3.60;99.90;;;;;;5029303;28;19952;-75
2024/01/08 06:50:51;;;;;;;;;;;-3.60;99.90;;;;;;5040627;28;20324;-73
2024/01/08 06:53:17;;;;;;;;;;;-3.60;99.90;;;;;;5037089;28;19915;-76
2024/01/08 06:55:42;;;;;;;;;;;-3.60;99.90;;;;;;5040980;28;19988;-73
2024/01/08 06:58:08;;;;;;;;;;;-3.50;99.90;;;;;;5029508;28;19909;-73
2024/01/08 07:00:33;;;;;;;;;;;-3.70;99.90;;;;;;5033686;28;19913;-74
2024/01/08 07:02:59;;;;;;;;;;;-3.70;99.90;;;;;;5030861;28;20273;-76
2024/01/08 07:05:25;;;;;;;;;;;-3.70;99.90;;;;;;5028518;28;19948;-73
2024/01/08 07:07:52;;;;;;;;;;;-3.60;99.90;;;;;;5028228;28;20329;-74
2024/01/08 07:10:17;;;;;;;;;;;-3.60;99.90;;;;;;5033577;28;19916;-74
2024/01/08 07:12:42;;;;;;;;;;;-3.60;99.90;;;;;;5033154;28;20355;-75
2024/01/08 07:15:08;;;;;;;;;;;-3.70;99.90;;;;;;5034336;28;19916;-77
2024/01/08 07:17:33;;;;;;;;;;;-3.70;99.90;;;;;;5024847;28;20281;-74
2024/01/08 07:20:00;;;;;;;;;;;-3.70;99.90;;;;;;5037640;28;19915;-74
2024/01/08 07:22:25;;;;;;;;;;;-3.60;99.90;;;;;;5031640;28;19915;-74
2024/01/08 07:24:51;;;;;;;;;;;-3.70;99.90;;;;;;5029541;28;19909;-76
2024/01/08 07:27:16;;;;;;;;;;;-3.70;99.90;;;;;;5032761;28;19917;-74
2024/01/08 07:29:42;;;;;;;;;;;-3.70;99.90;;;;;;5040450;28;20356;-74
2024/01/08 07:32:08;;;;;;;;;;;-3.60;99.90;;;;;;5036874;28;19913;-74
2024/01/08 07:34:34;;;;;;;;;;;-3.60;99.90;;;;;;5024425;28;20004;-74
2024/01/08 07:37:00;;;;;;;;;;;-3.60;99.90;;;;;;5030484;28;19999;-76
2024/01/08 07:39:25;;;;;;;;;;;-3.60;99.90;;;;;;5033024;28;19909;-77
2024/01/08 07:41:51;;;;;;;;;;;-3.70;99.90;;;;;;5031836;28;20374;-74
2024/01/08 07:44:16;;;;;;;;;;;-3.60;99.90;;;;;;5033565;28;20408;-75
2024/01/08 07:46:42;;;;;;;;;;;-3.70;99.90;;;;;;5031258;28;20382;-75
2024/01/08 07:49:09;;;;;;;;;;;-3.60;99.90;;;;;;5029457;28;20020;-75
2024/01/08 07:51:35;;;;;;;;;;;-3.60;99.90;;;;;;5036424;28;19917;-75
2024/01/08 07:54:00;;;;;;;;;;;-3.60;99.90;;;;;;5035611;28;19921;-77
2024/01/08 07:56:26;;;;;;;;;;;-3.60;99.90;;;;;;5026059;28;19915;-75
2024/01/08 07:58:52;;;;;;;;;;;-3.60;99.90;;;;;;5029571;28;20297;-75
2024/01/08 08:01:18;;;;;;;;;;;-3.60;99.90;;;;;;5035630;28;19910;-74
2024/01/08 08:03:43;;;;;;;;;;;-3.60;99.90;;;;;;5023980;28;19920;-75
2024/01/08 08:06:09;;;;;;;;;;;-3.60;99.90;;;;;;5029626;28;19913;-75
2024/01/08 08:08:34;;;;;;;;;;;-3.60;99.90;;;;;;5026908;28;19917;-74
2024/01/08 08:11:02;;;;;;;;;;;-3.60;99.90;;;;;;5024656;28;20381;-75
2024/01/08 08:13:27;;;;;;;;;;;-3.60;99.90;;;;;;5027856;28;19909;-77
2024/01/08 08:15:53;;;;;;;;;;;-3.60;99.90;;;;;;5035965;28;19913;-75
2024/01/08 08:18:18;;;;;;;;;;;-3.60;99.90;;;;;;5033809;28;19913;-75
2024/01/08 08:20:44;;;;;;;;;;;-3.50;99.90;;;;;;5031479;28;19913;-75
2024/01/08 08:23:11;;;;;;;;;;;-3.60;99.90;;;;;;5024013;28;20397;-75
2024/01/08 08:25:36;;;;;;;;;;;-3.60;99.90;;;;;;5027522;28;20369;-75
2024/01/08 08:28:03;;;;;;;;;;;-3.50;99.90;;;;;;5028947;28;19959;-75
2024/01/08 08:30:29;;;;;;;;;;;-3.50;99.90;;;;;;5028510;28;19909;-75
2024/01/08 08:32:58;;;;;;;;;;;-3.50;99.90;;;;;;5035463;28;19928;-78
2024/01/08 08:35:27;;;;;;;;;;;-3.50;99.90;;;;;;5041540;28;19909;-75
2024/01/08 08:37:53;;;;;;;;;;;-3.50;99.90;;;;;;5031782;28;19909;-76
2024/01/08 08:40:18;;;;;;;;;;;-3.60;99.90;;;;;;5033002;28;19920;-76
2024/01/08 08:42:44;;;;;;;;;;;-3.50;99.90;;;;;;5037246;28;19913;-76
2024/01/08 08:45:09;;;;;;;;;;;-3.50;99.90;;;;;;5041241;28;20423;-78
2024/01/08 08:47:35;;;;;;;;;;;-3.50;99.90;;;;;;5044266;28;19943;-76
2024/01/08 08:50:00;;;;;;;;;;;-3.50;99.90;;;;;;5029209;28;20011;-76
2024/01/08 08:52:26;;;;;;;;;;;-3.40;99.90;;;;;;5040548;28;20370;-76
2024/01/08 08:54:52;;;;;;;;;;;-3.30;99.90;;;;;;5037933;28;19931;-76
2024/01/08 08:57:17;;;;;;;;;;;-3.40;99.90;;;;;;5035932;28;19909;-75
2024/01/08 08:59:43;;;;;;;;;;;-3.40;99.90;;;;;;5035273;28;20396;-76
2024/01/08 09:02:09;;;;;;;;;;;-3.40;99.90;;;;;;5048055;28;19916;-76
2024/01/08 09:04:34;;;;;;;;;;;-3.40;99.90;;;;;;5038069;28;20277;-77
2024/01/08 09:07:00;;;;;;;;;;;-3.30;99.90;;;;;;5047350;28;20038;-76
2024/01/08 09:09:25;;;;;;;;;;;-3.30;99.90;;;;;;5037596;28;19920;-76
2024/01/08 09:11:51;;;;;;;;;;;-3.20;99.90;;;;;;5040422;28;19916;-77
2024/01/08 09:14:16;;;;;;;;;;;-3.20;99.90;;;;;;5048201;28;19923;-76
2024/01/08 09:16:42;;;;;;;;;;;-3.20;99.90;;;;;;5035758;28;20370;-75
2024/01/08 09:19:08;;;;;;;;;;;-3.20;99.90;;;;;;5034762;28;19917;-76
2024/01/08 09:21:33;;;;;;;;;;;-3.20;99.90;;;;;;5047864;28;19995;-78
2024/01/08 09:23:59;;;;;;;;;;;-3.10;99.90;;;;;;5034596;28;19917;-74
2024/01/08 09:26:24;;;;;;;;;;;-3.20;99.90;;;;;;5031244;28;19917;-75
2024/01/08 09:28:50;;;;;;;;;;;-3.00;99.90;;;;;;5032550;28;19913;-77
2024/01/08 09:31:15;;;;;;;;;;;-3.00;99.90;;;;;;5036837;28;20463;-75
2024/01/08 09:33:41;;;;;;;;;;;-3.10;99.90;;;;;;5031738;28;20362;-75
2024/01/08 09:36:06;;;;;;;;;;;-3.00;99.90;;;;;;5048068;28;19912;-81
2024/01/08 09:38:32;;;;;;;;;;;-3.00;99.90;;;;;;5045334;28;20505;-74
2024/01/08 09:40:57;;;;;;;;;;;-3.00;99.90;;;;;;5035237;28;20457;-75
2024/01/08 09:43:23;;;;;;;;;;;-3.00;99.90;;;;;;5031501;28;19909;-78
2024/01/08 09:46:04;;;;;;;;;;;-3.10;99.90;;;;;;5032158;28;19913;-72
2024/01/08 09:48:30;;;;;;;;;;;-3.20;99.90;;;;;;5028217;28;19920;-72
2024/01/08 09:50:56;;;;;;;;;;;-3.10;99.90;;;;;;5034708;28;19960;-72
2024/01/08 09:53:22;;;;;;;;;;;-3.10;99.90;;;;;;5030575;28;19975;-72
2024/01/08 09:55:48;;;;;;;;;;;-3.00;99.90;;;;;;5033266;28;19918;-72
2024/01/08 09:58:14;;;;;;;;;;;-2.90;99.90;;;;;;5023545;28;19913;-72
2024/01/08 10:00:42;;;;;;;;;;;-2.90;99.90;;;;;;5034675;28;19920;-72
2024/01/08 10:03:08;;;;;;;;;;;-3.00;99.90;;;;;;5032918;28;20428;-72
2024/01/08 10:05:34;;;;;;;;;;;-3.10;99.90;;;;;;5030550;28;19917;-73
2024/01/08 10:08:02;;;;;;;;;;;-3.00;99.90;;;;;;5032909;28;20267;-73
2024/01/08 10:10:30;;;;;;;;;;;-3.20;99.90;;;;;;5033718;28;19909;-72
2024/01/08 10:12:56;;;;;;;;;;;-3.00;99.90;;;;;;5018644;28;19968;-73
2024/01/08 10:15:21;;;;;;;;;;;-2.90;99.90;;;;;;5040122;28;20341;-73
2024/01/08 10:17:48;;;;;;;;;;;-3.00;99.90;;;;;;5037848;28;19909;-72
2024/01/08 10:20:14;;;;;;;;;;;-3.00;99.90;;;;;;5040867;28;19913;-72
2024/01/08 10:22:40;;;;;;;;;;;-3.00;99.90;;;;;;5044053;28;20350;-72
2024/01/08 10:25:06;;;;;;;;;;;-3.10;99.90;;;;;;5032583;28;19935;-72
2024/01/08 10:27:31;;;;;;;;;;;-3.10;99.90;;;;;;5033636;28;20353;-69
2024/01/08 10:29:57;;;;;;;;;;;-3.10;99.90;;;;;;5038574;28;20529;-72
2024/01/08 10:32:23;;;;;;;;;;;-3.10;99.90;;;;;;5040348;28;19948;-72
2024/01/08 10:34:49;;;;;;;;;;;-3.10;99.90;;;;;;5042009;28;19991;-72
2024/01/08 10:37:15;;;;;;;;;;;-3.10;99.90;;;;;;5029203;28;19909;-72
2024/01/08 10:39:40;;;;;;;;;;;-3.10;99.90;;;;;;5047983;28;20310;-71
2024/01/08 10:42:06;;;;;;;;;;;-3.10;99.90;;;;;;5036029;28;19909;-71
2024/01/08 10:44:31;;;;;;;;;;;-2.90;99.90;;;;;;5042286;28;20055;-72
2024/01/08 10:46:58;;;;;;;;;;;-2.80;99.90;;;;;;5033803;28;19909;-72
2024/01/08 10:49:32;;;;;;;;;;;-2.90;99.90;;;;;;5039458;28;20050;-72
2024/01/08 10:51:59;;;;;;;;;;;-2.90;99.90;;;;;;5056640;28;19912;-72
2024/01/08 10:54:27;;;;;;;;;;;-2.90;99.90;;;;;;5041136;28;20366;-72
2024/01/08 10:56:54;;;;;;;;;;;-2.70;99.90;;;;;;5053390;28;20317;-71
2024/01/08 10:59:22;;;;;;;;;;;-2.90;99.90;;;;;;5041796;28;19923;-71
2024/01/08 11:01:49;;;;;;;;;;;-2.80;99.90;;;;;;5038020;28;19909;-72
2024/01/08 11:04:14;;;;;;;;;;;-2.80;99.90;;;;;;5030051;28;19913;-74
2024/01/08 11:06:41;;;;;;;;;;;-2.90;99.90;;;;;;5025966;28;19910;-71
2024/01/08 11:09:22;;;;;;;;;;;-2.80;99.90;;;;;;5047839;28;19912;-72
2024/01/08 11:11:48;;;;;;;;;;;-2.70;99.90;;;;;;5037431;28;19909;-69
2024/01/08 11:14:14;;;;;;;;;;;-2.80;99.90;;;;;;5039127;28;19913;-72
2024/01/08 11:16:39;;;;;;;;;;;-2.80;99.90;;;;;;5034858;28;19956;-72
2024/01/08 11:19:17;;;;;;;;;;;-2.70;99.90;;;;;;5027629;28;19920;-72
2024/01/08 11:21:43;;;;;;;;;;;-2.60;99.90;;;;;;5037425;28;20361;-72
2024/01/08 11:24:11;;;;;;;;;;;-2.50;99.90;;;;;;5034417;28;19916;-72
2024/01/08 11:26:41;;;;;;;;;;;-2.50;99.90;;;;;;5036051;28;19966;-70
2024/01/08 11:29:08;;;;;;;;;;;-2.60;99.90;;;;;;5032833;28;20000;-72
2024/01/08 11:31:49;;;;;;;;;;;-2.50;99.90;;;;;;5030936;28;19913;-72
2024/01/08 11:34:33;;;;;;;;;;;-2.40;99.90;;;;;;5034048;28;20034;-72
2024/01/08 11:37:04;;;;;;;;;;;-2.40;99.90;;;;;;5034524;28;19909;-72
2024/01/08 11:39:34;;;;;;;;;;;-2.30;99.90;;;;;;5035277;28;20419;-70
2024/01/08 11:41:59;;;;;;;;;;;-2.30;99.90;;;;;;5033241;28;19959;-72
2024/01/08 11:44:25;;;;;;;;;;;-2.30;99.90;;;;;;5037634;28;19944;-72
2024/01/08 11:46:50;;;;;;;;;;;-2.20;99.90;;;;;;5060922;28;19909;-71
2024/01/08 11:49:16;;;;;;;;;;;-2.40;99.90;;;;;;5037105;28;19917;-72
2024/01/08 11:51:44;;;;;;;;;;;-2.60;99.90;;;;;;5031661;28;20259;-71
2024/01/08 11:54:13;;;;;;;;;;;-2.20;99.90;;;;;;5033720;28;19909;-72
2024/01/08 11:56:39;;;;;;;;;;;-2.30;99.90;;;;;;5028958;28;19913;-70
2024/01/08 11:59:05;;;;;;;;;;;-2.20;99.90;;;;;;5036081;28;19963;-70
2024/01/08 12:01:30;;;;;;;;;;;-2.30;99.90;;;;;;5030533;28;19913;-73
2024/01/08 12:03:59;;;;;;;;;;;-2.30;99.90;;;;;;5032673;28;19909;-73
2024/01/08 12:06:28;;;;;;;;;;;-2.30;99.90;;;;;;5029560;28;20010;-73
2024/01/08 12:08:54;;;;;;;;;;;-2.20;99.90;;;;;;5040069;28;19913;-70
2024/01/08 12:11:19;;;;;;;;;;;-2.30;99.90;;;;;;5025285;28;20247;-73
2024/01/08 12:13:46;;;;;;;;;;;-2.20;99.90;;;;;;5043053;28;20417;-73
2024/01/08 12:16:12;;;;;;;;;;;-2.10;99.90;;;;;;5033514;28;20022;-72
2024/01/08 12:18:37;;;;;;;;;;;-2.10;99.90;;;;;;5033663;28;19945;-72
2024/01/08 12:21:03;;;;;;;;;;;-2.30;99.90;;;;;;5038151;28;20285;-72
2024/01/08 12:23:28;;;;;;;;;;;-2.30;99.90;;;;;;5032311;28;19909;-70
2024/01/08 12:25:54;;;;;;;;;;;-2.40;99.90;;;;;;5037238;28;19975;-73
2024/01/08 12:28:19;;;;;;;;;;;-2.30;99.90;;;;;;5038295;28;20004;-72
2024/01/08 12:30:45;;;;;;;;;;;-2.30;99.90;;;;;;5038583;28;19916;-70
2024/01/08 12:33:11;;;;;;;;;;;-2.20;99.90;;;;;;5040953;28;19913;-73
2024/01/08 12:35:37;;;;;;;;;;;-2.20;99.90;;;;;;5032034;28;19909;-73
2024/01/08 12:38:03;;;;;;;;;;;-2.20;99.90;;;;;;5073719;28;19908;-73
2024/01/08 12:40:29;;;;;;;;;;;-2.30;99.90;;;;;;5033780;28;19909;-72
2024/01/08 12:42:54;;;;;;;;;;;-2.40;99.90;;;;;;5050254;28;19915;-72
2024/01/08 12:45:20;;;;;;;;;;;-2.40;99.90;;;;;;5025612;28;19909;-71
2024/01/08 12:47:46;;;;;;;;;;;-2.40;99.90;;;;;;5033966;28;19917;-70
2024/01/08 12:50:11;;;;;;;;;;;-2.40;99.90;;;;;;5027661;28;20262;-72
2024/01/08 12:52:37;;;;;;;;;;;-2.40;99.90;;;;;;5031071;28;20206;-72
2024/01/08 12:55:03;;;;;;;;;;;-2.10;99.90;;;;;;5040391;28;20238;-69
2024/01/08 12:57:30;;;;;;;;;;;-2.20;99.90;;;;;;5033744;28;19909;-69
2024/01/08 12:59:56;;;;;;;;;;;-2.20;99.90;;;;;;5036572;28;20007;-73
2024/01/08 13:02:22;;;;;;;;;;;-2.20;99.90;;;;;;5029990;28;20380;-74
2024/01/08 13:04:49;;;;;;;;;;;-2.30;99.90;;;;;;5027255;28;19917;-73
2024/01/08 13:07:15;;;;;;;;;;;-2.30;99.90;;;;;;5039257;28;19956;-74
2024/01/08 13:09:40;;;;;;;;;;;-2.40;99.90;;;;;;5019437;28;19987;-74
2024/01/08 13:12:07;;;;;;;;;;;-2.50;99.90;;;;;;5027196;28;19913;-74
2024/01/08 13:14:32;;;;;;;;;;;-2.50;99.90;;;;;;5028598;28;20758;-73
2024/01/08 13:16:58;;;;;;;;;;;-2.40;99.90;;;;;;5029591;28;19955;-73
2024/01/08 13:19:24;;;;;;;;;;;-2.40;99.90;;;;;;5018425;28;19914;-74
2024/01/08 13:21:50;;;;;;;;;;;-2.40;99.90;;;;;;5038670;28;19916;-71
2024/01/08 13:24:15;;;;;;;;;;;-2.30;99.90;;;;;;5035719;28;19909;-73
2024/01/08 13:26:42;;;;;;;;;;;-2.50;99.90;;;;;;5040607;28;19956;-72
2024/01/08 13:29:07;;;;;;;;;;;-2.60;99.90;;;;;;5038062;28;19913;-73
2024/01/08 13:31:33;;;;;;;;;;;-2.50;99.90;;;;;;5030725;28;20366;-73
2024/01/08 13:33:59;;;;;;;;;;;-2.50;99.90;;;;;;5047335;28;20266;-72
2024/01/08 13:36:25;;;;;;;;;;;-2.50;99.90;;;;;;5034262;28;20250;-72
2024/01/08 13:38:50;;;;;;;;;;;-2.40;99.90;;;;;;5030913;28;20005;-73
2024/01/08 13:41:15;;;;;;;;;;;-2.50;99.90;;;;;;5040903;28;20005;-73
2024/01/08 13:43:41;;;;;;;;;;;-2.50;99.90;;;;;;5033390;28;19913;-74
2024/01/08 13:46:09;;;;;;;;;;;-2.40;99.90;;;;;;5040410;28;20239;-72
2024/01/08 13:48:35;;;;;;;;;;;-2.50;99.90;;;;;;5042690;28;20327;-71
2024/01/08 13:51:01;;;;;;;;;;;-2.50;99.90;;;;;;5030447;28;20061;-72
2024/01/08 13:53:26;;;;;;;;;;;-2.40;99.90;;;;;;5035207;28;19998;-72
2024/01/08 13:55:54;;;;;;;;;;;-2.40;99.90;;;;;;5029624;28;19909;-74
2024/01/08 13:58:19;;;;;;;;;;;-2.20;99.90;;;;;;5022609;28;19948;-73
2024/01/08 14:00:45;;;;;;;;;;;-2.40;99.90;;;;;;5036555;28;20393;-73
2024/01/08 14:03:11;;;;;;;;;;;-2.40;99.90;;;;;;5025805;28;19913;-73
2024/01/08 14:05:36;;;;;;;;;;;-2.60;99.90;;;;;;5028806;28;20007;-72
2024/01/08 14:08:02;;;;;;;;;;;-2.60;99.90;;;;;;5027516;28;19913;-72